Terminal Aerodrome Forecast
Issued by NWS

Current Version | Previous Version | Text Only | Print | Product List | Glossary On
Versions: 1 2 3 4 5 6 7 8 9 10 11 12 13 14 15 16 17 18 19 20 21 22
604
FTUS41 KRLX 242343
TAFCKB
TAF
KCKB 242343Z 2500/2524 12011KT P6SM VCSH OVC050
     FM250500 15004KT P6SM SHRA OVC027
     FM251000 18005KT P6SM SHRA OVC013
     FM251700 22009KT P6SM SHRA BKN035=

USA.gov is the U.S. government's official web portal to all federal, state and local government web resources and services.